createdAt,value
2019-02-20T00:02:15.935Z,3.73
2019-02-20T00:05:22.292Z,3.66
2019-02-20T00:08:28.541Z,3.68
2019-02-20T00:11:34.951Z,3.68
2019-02-20T00:14:41.300Z,3.46
2019-02-20T00:17:47.628Z,3.46
2019-02-20T00:20:53.905Z,3.29
2019-02-20T00:24:00.238Z,3.28
2019-02-20T00:27:06.514Z,3.33
2019-02-20T00:30:12.827Z,3.31
2019-02-20T00:33:19.298Z,3.34
2019-02-20T00:36:25.635Z,3.29
2019-02-20T00:39:32.042Z,3.29
2019-02-20T00:42:38.385Z,3.15
2019-02-20T00:46:03.606Z,2.41
2019-02-20T00:49:16.814Z,3.12
2019-02-20T00:52:34.515Z,3.09
2019-02-20T00:55:40.854Z,3.06
2019-02-20T00:58:48.186Z,3.11
2019-02-20T01:01:54.464Z,3.13
2019-02-20T01:05:00.815Z,3.06
2019-02-20T01:08:07.344Z,2.87
2019-02-20T01:11:13.696Z,2.80
2019-02-20T01:14:20.073Z,2.77
2019-02-20T01:17:26.449Z,2.81
2019-02-20T01:20:32.774Z,2.83
2019-02-20T01:23:39.158Z,2.74
2019-02-20T01:26:45.502Z,2.67
2019-02-20T01:29:51.837Z,2.69
2019-02-20T01:32:58.142Z,2.62
2019-02-20T01:36:04.577Z,2.58
2019-02-20T01:39:10.960Z,2.60
2019-02-20T01:42:17.315Z,2.61
2019-02-20T01:45:23.658Z,2.71
2019-02-20T01:48:29.943Z,2.55
2019-02-20T01:51:36.296Z,2.62
2019-02-20T01:54:42.626Z,2.65
2019-02-20T01:57:48.946Z,2.58
2019-02-20T02:00:55.186Z,2.58
2019-02-20T02:04:01.694Z,2.48
2019-02-20T02:07:09.125Z,2.60
2019-02-20T02:10:15.387Z,2.61
2019-02-20T02:13:21.832Z,2.58
2019-02-20T02:16:28.217Z,2.47
2019-02-20T02:19:34.567Z,2.60
2019-02-20T02:22:40.927Z,2.48
2019-02-20T02:25:47.255Z,2.49
2019-02-20T02:28:53.680Z,2.46
2019-02-20T02:32:00.033Z,2.45
2019-02-20T02:35:06.355Z,2.43
2019-02-20T02:38:12.785Z,2.43
2019-02-20T02:41:19.153Z,2.46
2019-02-20T02:44:25.624Z,2.50
2019-02-20T02:47:31.961Z,2.43
2019-02-20T02:50:38.264Z,2.44
2019-02-20T02:53:44.617Z,2.34
2019-02-20T02:56:51.067Z,2.45
2019-02-20T02:59:57.424Z,2.46
2019-02-20T03:03:03.788Z,2.47
2019-02-20T03:06:10.166Z,2.48
2019-02-20T03:09:16.416Z,2.37
2019-02-20T03:12:22.876Z,2.50
2019-02-20T03:15:29.216Z,2.52
2019-02-20T03:18:35.621Z,2.53
2019-02-20T03:21:41.972Z,2.51
2019-02-20T03:24:48.326Z,2.57
2019-02-20T03:27:54.682Z,2.51
2019-02-20T03:31:01.110Z,2.51
2019-02-20T03:34:09.026Z,2.58
2019-02-20T03:37:15.571Z,2.54
2019-02-20T03:40:22.225Z,2.60
2019-02-20T03:43:29.530Z,2.70
2019-02-20T03:46:35.951Z,2.73
2019-02-20T03:49:42.306Z,2.65
2019-02-20T03:52:48.634Z,2.65
2019-02-20T03:55:55.166Z,2.64
2019-02-20T03:59:01.564Z,2.63
2019-02-20T04:02:07.831Z,2.68
2019-02-20T04:05:14.100Z,2.63
2019-02-20T04:08:20.437Z,2.64
2019-02-20T04:11:26.895Z,2.71
2019-02-20T04:14:33.251Z,2.71
2019-02-20T04:17:39.521Z,2.65
2019-02-20T04:20:45.861Z,2.66
2019-02-20T04:24:01.964Z,2.66
2019-02-20T04:27:00.373Z,2.66
2019-02-20T04:30:06.960Z,2.59
2019-02-20T04:33:13.320Z,2.66
2019-02-20T04:36:19.717Z,2.66
2019-02-20T04:39:25.995Z,2.70
2019-02-20T04:42:32.430Z,2.74
2019-02-20T04:45:38.759Z,2.60
2019-02-20T04:48:45.188Z,2.65
2019-02-20T04:51:51.559Z,2.62
2019-02-20T04:54:58.187Z,2.62
2019-02-20T04:58:18.320Z,2.61
2019-02-20T05:01:24.851Z,2.63
2019-02-20T05:04:31.143Z,2.63
2019-02-20T05:07:37.446Z,2.41
2019-02-20T05:10:43.794Z,2.43
2019-02-20T05:13:50.159Z,2.41
2019-02-20T05:16:56.557Z,2.32
2019-02-20T05:20:02.980Z,2.41
2019-02-20T05:23:14.152Z,2.41
2019-02-20T05:26:22.365Z,2.21
2019-02-20T05:29:28.682Z,2.23
2019-02-20T05:32:34.964Z,2.11
2019-02-20T05:35:41.361Z,2.13
2019-02-20T05:38:48.119Z,2.22
2019-02-20T05:41:54.387Z,2.18
2019-02-20T05:45:00.948Z,2.22
2019-02-20T05:48:07.469Z,2.18
2019-02-20T05:51:13.802Z,2.22
2019-02-20T05:54:20.133Z,2.05
2019-02-20T05:57:26.524Z,1.98
2019-02-20T06:00:32.803Z,2.03
2019-02-20T06:03:39.259Z,2.03
2019-02-20T06:06:45.601Z,1.87
2019-02-20T06:09:51.965Z,1.97
2019-02-20T06:13:02.166Z,1.91
2019-02-20T06:16:08.535Z,1.89
2019-02-20T06:19:14.870Z,1.90
2019-02-20T06:22:21.261Z,1.79
2019-02-20T06:25:27.667Z,1.82
2019-02-20T06:28:33.989Z,1.71
2019-02-20T06:31:40.285Z,1.68
2019-02-20T06:34:46.618Z,1.69
2019-02-20T06:37:53.277Z,1.73
2019-02-20T06:40:59.686Z,1.65
2019-02-20T06:44:06.101Z,1.69
2019-02-20T06:47:12.484Z,1.57
2019-02-20T06:50:18.751Z,1.63
2019-02-20T06:53:25.143Z,1.61
2019-02-20T06:56:31.486Z,1.53
2019-02-20T06:59:37.785Z,1.60
2019-02-20T07:02:44.148Z,1.62
2019-02-20T07:06:15.009Z,1.62
2019-02-20T07:09:47.904Z,1.59
2019-02-20T07:13:03.386Z,1.55
2019-02-20T07:16:59.818Z,1.50
2019-02-20T07:20:45.460Z,1.54
2019-02-20T07:24:10.523Z,1.57
2019-02-20T07:27:54.055Z,1.64
2019-02-20T07:31:00.440Z,1.67
2019-02-20T07:34:06.744Z,1.74
2019-02-20T07:37:13.119Z,1.68
2019-02-20T07:40:19.386Z,1.75
2019-02-20T07:43:25.793Z,1.86
2019-02-20T07:46:32.219Z,1.83
2019-02-20T07:49:38.573Z,1.88
2019-02-20T07:52:44.837Z,1.93
2019-02-20T07:55:51.088Z,1.92
2019-02-20T07:58:57.432Z,2.05
2019-02-20T08:02:03.739Z,2.06
2019-02-20T08:05:10.153Z,2.12
2019-02-20T08:08:16.514Z,2.06
2019-02-20T08:11:23.040Z,2.17
2019-02-20T08:14:29.321Z,2.18
2019-02-20T08:17:35.656Z,2.25
2019-02-20T08:20:41.923Z,2.33
2019-02-20T08:23:51.443Z,2.46
2019-02-20T08:26:57.705Z,2.53
2019-02-20T08:30:04.714Z,2.80
2019-02-20T08:33:11.120Z,2.95
2019-02-20T08:36:18.096Z,3.06
2019-02-20T08:39:24.454Z,3.34
2019-02-20T08:42:30.723Z,3.54
2019-02-20T08:45:37.122Z,3.71
2019-02-20T08:48:43.514Z,3.89
2019-02-20T08:51:49.945Z,4.07
2019-02-20T08:54:56.304Z,4.17
2019-02-20T08:58:02.551Z,4.48
2019-02-20T09:01:08.888Z,4.72
2019-02-20T09:04:15.244Z,4.74
2019-02-20T09:07:21.611Z,4.96
2019-02-20T09:10:27.941Z,5.10
2019-02-20T09:13:34.325Z,5.53
2019-02-20T09:16:40.681Z,5.67
2019-02-20T09:19:47.069Z,5.63
2019-02-20T09:22:53.416Z,5.81
2019-02-20T09:25:59.679Z,6.04
2019-02-20T09:29:06.111Z,5.78
2019-02-20T09:32:12.435Z,5.83
2019-02-20T09:35:18.771Z,5.99
2019-02-20T09:38:25.273Z,6.18
2019-02-20T09:41:31.676Z,6.43
2019-02-20T09:44:42.355Z,6.51
2019-02-20T09:47:48.721Z,6.64
2019-02-20T09:50:55.134Z,6.47
2019-02-20T09:54:01.650Z,7.01
2019-02-20T09:57:08.083Z,7.07
2019-02-20T10:00:15.148Z,7.17
2019-02-20T10:03:21.711Z,7.09
2019-02-20T10:06:28.133Z,7.27
2019-02-20T10:09:34.451Z,7.24
2019-02-20T10:12:40.691Z,7.31
2019-02-20T10:15:47.101Z,6.96
2019-02-20T10:18:53.440Z,7.52
2019-02-20T10:21:59.762Z,7.38
2019-02-20T10:25:06.241Z,7.74
2019-02-20T10:28:12.640Z,7.69
2019-02-20T10:31:19.033Z,7.37
2019-02-20T10:34:25.401Z,7.37
2019-02-20T10:37:31.722Z,7.72
2019-02-20T10:40:38.111Z,7.96
2019-02-20T10:43:44.435Z,8.11
2019-02-20T10:46:50.673Z,7.65
2019-02-20T10:49:57.049Z,7.63
2019-02-20T10:53:03.373Z,7.83
2019-02-20T10:56:09.934Z,8.15
2019-02-20T10:59:16.164Z,7.73
2019-02-20T11:02:22.554Z,7.24
2019-02-20T11:05:28.792Z,6.61
2019-02-20T11:08:35.192Z,6.69
2019-02-20T11:11:41.448Z,6.34
2019-02-20T11:14:48.978Z,5.50
2019-02-20T11:17:56.728Z,5.66
2019-02-20T11:21:03.193Z,5.40
2019-02-20T11:24:09.530Z,5.27
2019-02-20T11:27:15.882Z,5.19
2019-02-20T11:30:22.252Z,5.11
2019-02-20T11:33:28.586Z,4.86
2019-02-20T11:36:35.019Z,4.80
2019-02-20T11:39:41.389Z,4.72
2019-02-20T11:42:47.666Z,4.38
2019-02-20T11:45:53.952Z,4.15
2019-02-20T11:49:00.385Z,4.29
2019-02-20T11:52:06.645Z,4.10
2019-02-20T11:55:13.148Z,3.94
2019-02-20T11:58:19.619Z,4.17
2019-02-20T12:01:27.604Z,4.24
2019-02-20T12:04:33.942Z,4.37
2019-02-20T12:07:40.177Z,4.55
2019-02-20T12:10:46.503Z,4.68
2019-02-20T12:13:52.939Z,4.76
2019-02-20T12:16:59.262Z,4.82
2019-02-20T12:20:05.941Z,5.06
2019-02-20T12:23:12.333Z,5.00
2019-02-20T12:26:18.689Z,5.10
2019-02-20T12:29:25.105Z,5.19
2019-02-20T12:32:31.449Z,5.47
2019-02-20T12:35:37.769Z,5.31
2019-02-20T12:38:44.234Z,5.59
2019-02-20T12:41:50.538Z,5.72
2019-02-20T12:44:58.578Z,5.93
2019-02-20T12:48:05.014Z,5.61
2019-02-20T12:51:11.416Z,5.67
2019-02-20T12:54:18.187Z,5.92
2019-02-20T12:57:24.520Z,6.16
2019-02-20T13:00:31.124Z,6.12
2019-02-20T13:03:37.546Z,6.07
2019-02-20T13:06:43.996Z,6.25
2019-02-20T13:09:50.427Z,6.36
2019-02-20T13:12:56.709Z,6.32
2019-02-20T13:16:09.581Z,6.10
2019-02-20T13:19:14.363Z,6.59
2019-02-20T13:22:20.834Z,6.35
2019-02-20T13:25:27.088Z,6.45
2019-02-20T13:28:33.613Z,5.42
2019-02-20T13:31:40.061Z,5.79
2019-02-20T13:34:46.342Z,5.61
2019-02-20T13:37:52.858Z,5.39
2019-02-20T13:40:59.133Z,5.08
2019-02-20T13:44:06.043Z,5.19
2019-02-20T13:47:12.489Z,5.05
2019-02-20T13:50:18.825Z,4.84
2019-02-20T13:53:25.391Z,4.48
2019-02-20T13:56:33.027Z,4.13
2019-02-20T13:59:39.364Z,4.32
2019-02-20T14:02:45.990Z,4.21
2019-02-20T14:05:53.551Z,4.14
2019-02-20T14:08:59.994Z,3.86
2019-02-20T14:12:07.256Z,3.63
2019-02-20T14:15:14.308Z,3.83
2019-02-20T14:18:20.587Z,3.74
2019-02-20T14:21:27.028Z,3.62
2019-02-20T14:24:33.512Z,3.57
2019-02-20T14:27:39.792Z,3.56
2019-02-20T14:30:46.140Z,3.58
2019-02-20T14:33:52.538Z,3.18
2019-02-20T14:36:58.940Z,3.38
2019-02-20T14:40:05.352Z,3.22
2019-02-20T14:43:11.630Z,3.00
2019-02-20T14:46:18.276Z,3.10
2019-02-20T14:49:25.768Z,3.10
2019-02-20T14:52:32.136Z,3.05
2019-02-20T14:55:38.498Z,3.04
2019-02-20T14:58:44.801Z,2.97
2019-02-20T15:01:51.168Z,2.96
2019-02-20T15:04:57.543Z,2.97
2019-02-20T15:08:05.480Z,2.98
2019-02-20T15:11:12.033Z,2.95
2019-02-20T15:14:18.281Z,2.84
2019-02-20T15:17:25.189Z,2.76
2019-02-20T15:20:31.792Z,2.71
2019-02-20T15:23:38.156Z,2.79
2019-02-20T15:26:44.497Z,2.67
2019-02-20T15:29:50.797Z,2.54
2019-02-20T15:32:58.165Z,2.57
2019-02-20T15:36:04.538Z,2.38
2019-02-20T15:39:10.993Z,2.49
2019-02-20T15:42:17.658Z,2.43
2019-02-20T15:45:24.104Z,2.35
2019-02-20T15:48:30.730Z,2.29
2019-02-20T15:51:37.073Z,2.27
2019-02-20T15:54:43.333Z,2.20
2019-02-20T15:57:49.988Z,2.16
2019-02-20T16:00:56.243Z,2.15
2019-02-20T16:04:02.649Z,1.95
2019-02-20T16:07:09.166Z,2.06
2019-02-20T16:10:15.600Z,2.02
2019-02-20T16:13:21.845Z,1.94
2019-02-20T16:16:28.364Z,1.80
2019-02-20T16:19:34.636Z,1.83
2019-02-20T16:22:41.091Z,1.86
2019-02-20T16:25:48.462Z,1.77
2019-02-20T16:28:55.268Z,1.72
2019-02-20T16:32:01.586Z,1.65
2019-02-20T16:35:09.675Z,1.50
2019-02-20T16:38:16.117Z,1.39
2019-02-20T16:41:22.445Z,1.32
2019-02-20T16:44:28.700Z,1.24
2019-02-20T16:47:35.073Z,1.40
2019-02-20T16:50:41.436Z,1.26
2019-02-20T16:53:48.276Z,1.35
2019-02-20T16:56:54.528Z,1.42
2019-02-20T17:00:01.301Z,1.38
2019-02-20T17:03:09.846Z,1.16
2019-02-20T17:06:17.041Z,1.11
2019-02-20T17:09:23.579Z,1.14
2019-02-20T17:12:30.469Z,1.21
2019-02-20T17:15:36.862Z,1.02
2019-02-20T17:18:43.104Z,1.11
2019-02-20T17:21:49.449Z,1.04
2019-02-20T17:24:55.879Z,1.11
2019-02-20T17:28:05.693Z,0.80
2019-02-20T17:31:10.435Z,0.74
2019-02-20T17:34:16.983Z,0.76
2019-02-20T17:37:23.254Z,0.54
2019-02-20T17:40:29.635Z,0.71
2019-02-20T17:43:35.972Z,0.46
2019-02-20T17:46:42.265Z,0.54
2019-02-20T17:49:49.264Z,0.58
2019-02-20T17:52:56.091Z,0.67
2019-02-20T17:56:02.508Z,0.65
2019-02-20T17:59:08.855Z,0.22
2019-02-20T18:02:15.244Z,0.29
2019-02-20T18:05:21.581Z,0.25
2019-02-20T18:08:27.995Z,0.40
2019-02-20T18:11:37.231Z,0.43
2019-02-20T18:14:43.573Z,0.30
2019-02-20T18:17:49.830Z,0.28
2019-02-20T18:20:56.087Z,0.22
2019-02-20T18:24:03.698Z,0.14
2019-02-20T18:27:10.152Z,0.28
2019-02-20T18:30:16.871Z,0.20
2019-02-20T18:33:23.258Z,0.13
2019-02-20T18:36:29.687Z,0.25
2019-02-20T18:39:36.040Z,0.18
2019-02-20T18:42:42.583Z,0.22
2019-02-20T18:45:49.010Z,0.07
2019-02-20T18:48:55.677Z,-0.05
2019-02-20T18:52:02.165Z,0.04
2019-02-20T18:55:09.668Z,0.16
2019-02-20T18:58:18.908Z,-0.43
2019-02-20T19:01:25.498Z,-0.04
2019-02-20T19:04:32.736Z,-0.12
2019-02-20T19:07:39.467Z,-0.17
2019-02-20T19:10:45.867Z,-0.28
2019-02-20T19:14:03.884Z,-0.17
2019-02-20T19:17:42.419Z,-0.29
2019-02-20T19:21:22.887Z,-0.42
2019-02-20T19:24:54.124Z,-0.34
2019-02-20T19:28:20.625Z,-0.44
2019-02-20T19:32:15.824Z,-0.46
2019-02-20T19:35:50.806Z,-0.53
2019-02-20T19:39:34.762Z,-0.68
2019-02-20T19:43:28.788Z,-0.71
2019-02-20T19:47:10.795Z,-0.53
2019-02-20T19:50:58.920Z,-0.98
2019-02-20T19:54:19.291Z,-0.56
2019-02-20T19:58:19.662Z,-0.68
2019-02-20T20:02:34.953Z,-0.67
2019-02-20T20:06:15.874Z,-0.70
2019-02-20T20:09:44.714Z,-0.93
2019-02-20T20:13:29.888Z,-0.98
2019-02-20T20:17:26.716Z,-0.99
2019-02-20T20:21:23.586Z,-0.89
2019-02-20T20:25:01.274Z,-0.83
2019-02-20T20:28:35.910Z,-0.82
2019-02-20T20:32:52.631Z,-0.86
2019-02-20T20:36:15.698Z,-0.90
2019-02-20T20:40:03.258Z,-0.93
2019-02-20T20:43:46.698Z,-0.92
2019-02-20T20:47:16.735Z,-0.93
2019-02-20T20:50:55.918Z,-0.95
2019-02-20T20:54:34.840Z,-0.96
2019-02-20T20:58:04.948Z,-0.99
2019-02-20T21:01:43.411Z,-1.11
2019-02-20T21:05:40.090Z,-1.15
2019-02-20T21:09:10.905Z,-1.09
2019-02-20T21:13:02.074Z,-1.24
2019-02-20T21:16:20.027Z,-1.21
2019-02-20T21:20:10.955Z,-1.15
2019-02-20T21:24:01.870Z,-1.17
2019-02-20T21:27:32.309Z,-1.23
2019-02-20T21:31:21.919Z,-1.22
2019-02-20T21:35:02.870Z,-1.21
2019-02-20T21:38:55.001Z,-1.23
2019-02-20T21:42:47.860Z,-1.21
2019-02-20T21:46:02.307Z,-1.21
2019-02-20T21:49:22.042Z,-1.28
2019-02-20T21:53:24.525Z,-1.33
2019-02-20T21:56:58.126Z,-1.38
2019-02-20T22:00:39.481Z,-1.53
2019-02-20T22:04:32.512Z,-1.87
2019-02-20T22:07:55.399Z,-1.34
2019-02-20T22:11:30.155Z,-1.36
2019-02-20T22:15:14.712Z,-1.42
2019-02-20T22:18:47.571Z,-1.38
2019-02-20T22:22:13.110Z,-1.37
2019-02-20T22:25:55.390Z,-1.36
2019-02-20T22:29:37.760Z,-1.40
2019-02-20T22:33:10.737Z,-1.39
2019-02-20T22:37:08.474Z,-1.41
2019-02-20T22:40:46.842Z,-1.52
2019-02-20T22:44:43.672Z,-1.53
2019-02-20T22:48:00.281Z,-1.50
2019-02-20T22:51:44.046Z,-1.65
2019-02-20T22:55:24.639Z,-1.56
2019-02-20T22:58:45.929Z,-1.49
2019-02-20T23:02:15.613Z,-1.62
2019-02-20T23:05:55.383Z,-1.60
2019-02-20T23:09:30.713Z,-1.48
2019-02-20T23:13:14.336Z,-1.51
2019-02-20T23:16:20.706Z,-1.57
2019-02-20T23:19:27.213Z,-1.50
2019-02-20T23:22:34.537Z,-1.49
2019-02-20T23:25:40.906Z,-1.51
2019-02-20T23:28:48.286Z,-1.58
2019-02-20T23:31:54.570Z,-1.53
2019-02-20T23:35:00.907Z,-1.57
2019-02-20T23:38:07.228Z,-1.61
2019-02-20T23:41:13.605Z,-1.60
2019-02-20T23:44:20.018Z,-1.52
2019-02-20T23:47:26.327Z,-1.50
2019-02-20T23:50:32.685Z,-1.49
2019-02-20T23:53:39.116Z,-1.46
2019-02-20T23:56:45.489Z,-1.53
2019-02-20T23:59:51.839Z,-1.59
